Svanen — LKXK — position and weather

sailwx.info

Track history (hours):
 
Tides and Currents Weather Stations Pressure Air Temp Water Temp Dewpoint Dewpoint Depression Visibility Wind Speed Wind Dir Waves Ship Positions

Svanen (Norway)

Ship's website: http://www.svanen.no/english/english.php1

Last reported at 2014-Sep-17 13:25 UTC. Time now 2014-Sep-18 09:46 UTC.
Position N 59°31' E 010°36'.

Length 27 m; draft 2.8 m.

Type: Sailing vessel. MMSI: 259173000.

Date/timePositionNaut miles runAvg speedWind from/ knotsBaromVisibWave heightAir tempDewpointWater temp
2014-Sep-17 13:25N 59°31' E 010°36'6 6.8
2014-Sep-17 12:33N 59°25' E 010°35'7 7.0
2014-Sep-17 11:33N 59°18' E 010°33'7 7.0
2014-Sep-17 10:33N 59°12' E 010°29'4 3.7
2014-Sep-17 09:33N 59°10' E 010°23'3 2.8
2014-Sep-17 08:28N 59°13' E 010°21'0 0.0
2014-Sep-17 07:31N 59°13' E 010°21'0 0.0
2014-Sep-17 06:04N 59°13' E 010°21'0 0.0
2014-Sep-17 05:31N 59°13' E 010°21'0 0.0
2014-Sep-17 04:28N 59°13' E 010°21'0 0.0
2014-Sep-17 03:31N 59°13' E 010°21'0 0.0
2014-Sep-17 02:28N 59°13' E 010°21'0 0.0
2014-Sep-17 01:28N 59°13' E 010°21'0 0.0
2014-Sep-17 00:31N 59°13' E 010°21'0 0.0
2014-Sep-16 23:28N 59°13' E 010°21'0 0.0
2014-Sep-16 22:28N 59°13' E 010°21'0 0.0
2014-Sep-16 21:28N 59°13' E 010°21'0 0.0
2014-Sep-16 20:31N 59°13' E 010°21'0 0.0
2014-Sep-16 19:31N 59°13' E 010°21'0 0.0
2014-Sep-16 18:31N 59°13' E 010°21'0 0.0
2014-Sep-16 17:31N 59°13' E 010°21'0 0.0
2014-Sep-16 16:28N 59°13' E 010°21'0 0.0
2014-Sep-16 15:31N 59°13' E 010°21'1 0.6
2014-Sep-16 14:33N 59°12' E 010°21'4 4.0
2014-Sep-16 13:33N 59°10' E 010°28'6 6.4
2014-Sep-16 12:33N 59°16' E 010°32'6 5.9
2014-Sep-16 11:33N 59°22' E 010°33'5 3.8
2014-Sep-16 10:09N 59°27' E 010°30'1 0.0
2014-Sep-15 14:28N 59°26' E 010°29'3 2.8
2014-Sep-15 13:29N 59°29' E 010°31'2 1.6
2014-Sep-15 12:33N 59°30' E 010°33'25 6.1
2014-Sep-15 08:26N 59°54' E 010°42'0 0.1
2014-Sep-15 07:33N 59°54' E 010°42'0 0.0
2014-Sep-15 04:33N 59°54' E 010°42'0 0.0
2014-Sep-15 03:34N 59°54' E 010°42'0 0.0
2014-Sep-15 02:34N 59°54' E 010°42'0 0.0
2014-Sep-15 01:34N 59°54' E 010°42'0 0.0
2014-Sep-15 00:33N 59°54' E 010°42'0 0.0
2014-Sep-14 23:33N 59°54' E 010°42'0 0.0
2014-Sep-14 22:33N 59°54' E 010°42'0 0.0
2014-Sep-14 21:33N 59°54' E 010°42'0 0.0
2014-Sep-14 20:33N 59°54' E 010°42'0 0.0
2014-Sep-14 19:33N 59°54' E 010°42'0 0.0
2014-Sep-14 18:33N 59°54' E 010°42'0 0.0
2014-Sep-14 17:33N 59°54' E 010°42'0 0.0
2014-Sep-14 16:33N 59°54' E 010°42'0 0.0
2014-Sep-14 15:33N 59°54' E 010°42'0 0.0
2014-Sep-14 14:33N 59°54' E 010°42'0 0.0
2014-Sep-14 13:33N 59°54' E 010°42'0 0.0
2014-Sep-14 12:33N 59°54' E 010°42'0 0.0
2014-Sep-14 11:33N 59°54' E 010°42'0 0.0
2014-Sep-14 10:33N 59°54' E 010°42'0 0.0
2014-Sep-14 09:33N 59°54' E 010°42'0 0.0
2014-Sep-14 08:33N 59°54' E 010°42'0 0.0
2014-Sep-14 07:33N 59°54' E 010°42'0 0.0
2014-Sep-14 06:33N 59°54' E 010°42'0 0.0
2014-Sep-14 05:33N 59°54' E 010°42'0 0.0
2014-Sep-14 04:33N 59°54' E 010°42'0 0.0
2014-Sep-14 03:33N 59°54' E 010°42'0 0.0
2014-Sep-14 02:33N 59°54' E 010°42'0 0.0
2014-Sep-14 01:33N 59°54' E 010°42'0 0.0
2014-Sep-13 21:34N 59°54' E 010°42'0 0.0
2014-Sep-13 20:34N 59°54' E 010°42'0 0.0
2014-Sep-13 19:33N 59°54' E 010°42'0 0.0
2014-Sep-13 18:33N 59°54' E 010°42'0 0.0
2014-Sep-13 17:33N 59°54' E 010°42'0 0.0
2014-Sep-13 16:33N 59°54' E 010°42'0 0.0
2014-Sep-13 15:33N 59°54' E 010°42'0 0.0
2014-Sep-13 14:33N 59°54' E 010°42'0 0.0
2014-Sep-13 13:33N 59°54' E 010°42'0 0.0
2014-Sep-13 12:33N 59°54' E 010°42'0 0.0
2014-Sep-13 11:33N 59°54' E 010°42'0 0.0
2014-Sep-13 10:33N 59°54' E 010°42'0 0.0
2014-Sep-13 09:33N 59°54' E 010°42'0 0.0
2014-Sep-13 08:33N 59°54' E 010°42'0 0.0
2014-Sep-13 07:33N 59°54' E 010°42'0 0.0
2014-Sep-13 06:33N 59°54' E 010°42'0 0.0
2014-Sep-13 05:34N 59°54' E 010°42'0 0.0
2014-Sep-13 04:33N 59°54' E 010°42'0 0.0
2014-Sep-13 03:33N 59°54' E 010°42'0 0.0
2014-Sep-13 02:33N 59°54' E 010°42'0 0.0
2014-Sep-13 01:33N 59°54' E 010°42'0 0.0
2014-Sep-13 00:33N 59°54' E 010°42'0 0.0
2014-Sep-12 23:33N 59°54' E 010°42'0 0.0
2014-Sep-12 22:33N 59°54' E 010°42'0 0.0
2014-Sep-12 21:33N 59°54' E 010°42'0 0.0
2014-Sep-12 20:33N 59°54' E 010°42'0 0.0
2014-Sep-12 19:33N 59°54' E 010°42'0 0.0
2014-Sep-12 18:33N 59°54' E 010°42'0 0.0
2014-Sep-12 17:33N 59°54' E 010°42'0 0.0
2014-Sep-12 16:33N 59°54' E 010°42'0 0.0
2014-Sep-12 15:33N 59°54' E 010°42'0 0.0
2014-Sep-12 14:33N 59°54' E 010°42'0 0.0
2014-Sep-12 13:33N 59°54' E 010°42'0 0.0
2014-Sep-12 12:33N 59°54' E 010°42'6 4.1
2014-Sep-12 11:12N 59°50' E 010°36'4 6.5
2014-Sep-12 10:32N 59°46' E 010°33'13 0.6
2014-Sep-11 13:30N 59°32' E 010°37'3 3.3
2014-Sep-11 12:33N 59°29' E 010°36'7 6.6
2014-Sep-11 11:33N 59°23' E 010°37'7 7.1
2014-Sep-11 10:33N 59°16' E 010°42'4 3.7
2014-Sep-11 09:33N 59°13' E 010°47'0 0.1
2014-Sep-11 08:33N 59°13' E 010°47'0 0.0
2014-Sep-11 07:30N 59°13' E 010°47'0 0.0
2014-Sep-11 06:33N 59°13' E 010°47'0 0.0
2014-Sep-11 05:33N 59°13' E 010°47'0 0.0
2014-Sep-11 04:33N 59°13' E 010°47'0 0.0
2014-Sep-11 03:33N 59°13' E 010°47'0 0.0
2014-Sep-11 02:33N 59°13' E 010°47'0 0.0
2014-Sep-11 01:33N 59°13' E 010°47'0 0.0
2014-Sep-11 00:33N 59°13' E 010°47'0 0.0
2014-Sep-10 23:33N 59°13' E 010°47'0 0.0
2014-Sep-10 22:33N 59°13' E 010°47'0 0.0
2014-Sep-10 21:33N 59°13' E 010°47'0 0.0
2014-Sep-10 20:33N 59°13' E 010°47'0 0.0
2014-Sep-10 19:33N 59°13' E 010°47'0 0.0
2014-Sep-10 18:33N 59°13' E 010°47'0 0.0
2014-Sep-10 17:33N 59°13' E 010°47'0 0.0
2014-Sep-10 16:30N 59°13' E 010°47'2 2.1
2014-Sep-10 15:33N 59°11' E 010°45'5 5.2
2014-Sep-10 14:33N 59°13' E 010°35'2 2.2
2014-Sep-10 13:33N 59°13' E 010°40'4 4.1
2014-Sep-10 12:33N 59°17' E 010°38'5 4.6
2014-Sep-10 11:33N 59°22' E 010°35'6 5.0
2014-Sep-10 10:27N 59°27' E 010°31'1 0.1
2014-Sep-09 20:09N 59°26' E 010°29'0 0.0
2014-Sep-09 14:26N 59°26' E 010°29'5 5.1
2014-Sep-09 13:32N 59°30' E 010°33'25 6.2
2014-Sep-09 09:31N 59°54' E 010°42'0 0.1
2014-Sep-09 08:29N 59°54' E 010°42'0 0.0
2014-Sep-09 07:29N 59°54' E 010°42'0 0.0
2014-Sep-09 06:26N 59°54' E 010°42'0 0.0
2014-Sep-09 05:23N 59°54' E 010°42'0 0.0
2014-Sep-09 04:26N 59°54' E 010°42'0 0.0
2014-Sep-09 03:26N 59°54' E 010°42'0 0.0
2014-Sep-09 02:29N 59°54' E 010°42'0 0.0
2014-Sep-09 01:05N 59°54' E 010°42'0 0.0
2014-Sep-09 00:32N 59°54' E 010°42'0 0.0
2014-Sep-08 23:32N 59°54' E 010°42'0 0.0
2014-Sep-08 22:29N 59°54' E 010°42'0 0.0
2014-Sep-08 21:29N 59°54' E 010°42'0 0.0
2014-Sep-08 20:32N 59°54' E 010°42'0 0.0
2014-Sep-08 19:26N 59°54' E 010°42'0 0.0
2014-Sep-08 18:32N 59°54' E 010°42'0 0.0
2014-Sep-08 17:32N 59°54' E 010°42'0 0.0
2014-Sep-08 16:29N 59°54' E 010°42'0 0.0
2014-Sep-08 15:26N 59°54' E 010°42'0 0.0
2014-Sep-08 14:23N 59°54' E 010°42'0 0.0
2014-Sep-08 13:11N 59°54' E 010°42'0 0.0
2014-Sep-08 12:26N 59°54' E 010°42'0 0.0
2014-Sep-08 11:32N 59°54' E 010°42'0 0.0
2014-Sep-08 10:11N 59°54' E 010°42'0 0.0
2014-Sep-08 09:29N 59°54' E 010°42'0 0.0
2014-Sep-08 08:29N 59°54' E 010°42'0 0.0
2014-Sep-08 07:17N 59°54' E 010°42'0 0.0
2014-Sep-08 05:21N 59°54' E 010°42'0 0.0
2014-Sep-08 04:26N 59°54' E 010°42'0 0.0
2014-Sep-08 03:23N 59°54' E 010°42'0 0.0
2014-Sep-08 02:29N 59°54' E 010°42'0 0.0
2014-Sep-08 01:32N 59°54' E 010°42'0 0.0
2014-Sep-08 00:20N 59°54' E 010°42'0 0.0
2014-Sep-07 23:29N 59°54' E 010°42'0 0.0
2014-Sep-07 22:32N 59°54' E 010°42'0 0.0
2014-Sep-07 21:05N 59°54' E 010°42'0 0.0
2014-Sep-07 20:23N 59°54' E 010°42'0 0.0
2014-Sep-07 19:29N 59°54' E 010°42'0 0.0
2014-Sep-07 18:26N 59°54' E 010°42'0 0.0
2014-Sep-07 16:26N 59°54' E 010°42'0 0.0
2014-Sep-07 15:32N 59°54' E 010°42'0 0.0
2014-Sep-07 14:20N 59°54' E 010°42'0 0.0
2014-Sep-07 13:29N 59°54' E 010°42'  
Track history (hours):
 
Tides and Currents Weather Stations Pressure Air Temp Water Temp Dewpoint Dewpoint Depression Visibility Wind Speed Wind Dir Waves Ship Positions

Svanen (Norway)

Ship's website: http://www.svanen.no/english/english.php1

Last reported at 2014-Sep-17 13:25 UTC. Time now 2014-Sep-18 09:46 UTC.
Position N 59°31' E 010°36'.

Length 27 m; draft 2.8 m.

Type: Sailing vessel. MMSI: 259173000.

Date/timePositionNaut miles runAvg speedWind from/ knotsBaromVisibWave heightAir tempDewpointWater temp
2014-Sep-17 13:25N 59°31' E 010°36'6 6.8
2014-Sep-17 12:33N 59°25' E 010°35'7 7.0
2014-Sep-17 11:33N 59°18' E 010°33'7 7.0
2014-Sep-17 10:33N 59°12' E 010°29'4 3.7
2014-Sep-17 09:33N 59°10' E 010°23'3 2.8
2014-Sep-17 08:28N 59°13' E 010°21'0 0.0
2014-Sep-17 07:31N 59°13' E 010°21'0 0.0
2014-Sep-17 06:04N 59°13' E 010°21'0 0.0
2014-Sep-17 05:31N 59°13' E 010°21'0 0.0
2014-Sep-17 04:28N 59°13' E 010°21'0 0.0
2014-Sep-17 03:31N 59°13' E 010°21'0 0.0
2014-Sep-17 02:28N 59°13' E 010°21'0 0.0
2014-Sep-17 01:28N 59°13' E 010°21'0 0.0
2014-Sep-17 00:31N 59°13' E 010°21'0 0.0
2014-Sep-16 23:28N 59°13' E 010°21'0 0.0
2014-Sep-16 22:28N 59°13' E 010°21'0 0.0
2014-Sep-16 21:28N 59°13' E 010°21'0 0.0
2014-Sep-16 20:31N 59°13' E 010°21'0 0.0
2014-Sep-16 19:31N 59°13' E 010°21'0 0.0
2014-Sep-16 18:31N 59°13' E 010°21'0 0.0
2014-Sep-16 17:31N 59°13' E 010°21'0 0.0
2014-Sep-16 16:28N 59°13' E 010°21'0 0.0
2014-Sep-16 15:31N 59°13' E 010°21'1 0.6
2014-Sep-16 14:33N 59°12' E 010°21'4 4.0
2014-Sep-16 13:33N 59°10' E 010°28'6 6.4
2014-Sep-16 12:33N 59°16' E 010°32'6 5.9
2014-Sep-16 11:33N 59°22' E 010°33'5 3.8
2014-Sep-16 10:09N 59°27' E 010°30'1 0.0
2014-Sep-15 14:28N 59°26' E 010°29'3 2.8
2014-Sep-15 13:29N 59°29' E 010°31'2 1.6
2014-Sep-15 12:33N 59°30' E 010°33'25 6.1
2014-Sep-15 08:26N 59°54' E 010°42'0 0.1
2014-Sep-15 07:33N 59°54' E 010°42'0 0.0
2014-Sep-15 04:33N 59°54' E 010°42'0 0.0
2014-Sep-15 03:34N 59°54' E 010°42'0 0.0
2014-Sep-15 02:34N 59°54' E 010°42'0 0.0
2014-Sep-15 01:34N 59°54' E 010°42'0 0.0
2014-Sep-15 00:33N 59°54' E 010°42'0 0.0
2014-Sep-14 23:33N 59°54' E 010°42'0 0.0
2014-Sep-14 22:33N 59°54' E 010°42'0 0.0
2014-Sep-14 21:33N 59°54' E 010°42'0 0.0
2014-Sep-14 20:33N 59°54' E 010°42'0 0.0
2014-Sep-14 19:33N 59°54' E 010°42'0 0.0
2014-Sep-14 18:33N 59°54' E 010°42'0 0.0
2014-Sep-14 17:33N 59°54' E 010°42'0 0.0
2014-Sep-14 16:33N 59°54' E 010°42'0 0.0
2014-Sep-14 15:33N 59°54' E 010°42'0 0.0
2014-Sep-14 14:33N 59°54' E 010°42'0 0.0
2014-Sep-14 13:33N 59°54' E 010°42'0 0.0
2014-Sep-14 12:33N 59°54' E 010°42'0 0.0
2014-Sep-14 11:33N 59°54' E 010°42'0 0.0
2014-Sep-14 10:33N 59°54' E 010°42'0 0.0
2014-Sep-14 09:33N 59°54' E 010°42'0 0.0
2014-Sep-14 08:33N 59°54' E 010°42'0 0.0
2014-Sep-14 07:33N 59°54' E 010°42'0 0.0
2014-Sep-14 06:33N 59°54' E 010°42'0 0.0
2014-Sep-14 05:33N 59°54' E 010°42'0 0.0
2014-Sep-14 04:33N 59°54' E 010°42'0 0.0
2014-Sep-14 03:33N 59°54' E 010°42'0 0.0
2014-Sep-14 02:33N 59°54' E 010°42'0 0.0
2014-Sep-14 01:33N 59°54' E 010°42'0 0.0
2014-Sep-13 21:34N 59°54' E 010°42'0 0.0
2014-Sep-13 20:34N 59°54' E 010°42'0 0.0
2014-Sep-13 19:33N 59°54' E 010°42'0 0.0
2014-Sep-13 18:33N 59°54' E 010°42'0 0.0
2014-Sep-13 17:33N 59°54' E 010°42'0 0.0
2014-Sep-13 16:33N 59°54' E 010°42'0 0.0
2014-Sep-13 15:33N 59°54' E 010°42'0 0.0
2014-Sep-13 14:33N 59°54' E 010°42'0 0.0
2014-Sep-13 13:33N 59°54' E 010°42'0 0.0
2014-Sep-13 12:33N 59°54' E 010°42'0 0.0
2014-Sep-13 11:33N 59°54' E 010°42'0 0.0
2014-Sep-13 10:33N 59°54' E 010°42'0 0.0
2014-Sep-13 09:33N 59°54' E 010°42'0 0.0
2014-Sep-13 08:33N 59°54' E 010°42'0 0.0
2014-Sep-13 07:33N 59°54' E 010°42'0 0.0
2014-Sep-13 06:33N 59°54' E 010°42'0 0.0
2014-Sep-13 05:34N 59°54' E 010°42'0 0.0
2014-Sep-13 04:33N 59°54' E 010°42'0 0.0
2014-Sep-13 03:33N 59°54' E 010°42'0 0.0
2014-Sep-13 02:33N 59°54' E 010°42'0 0.0
2014-Sep-13 01:33N 59°54' E 010°42'0 0.0
2014-Sep-13 00:33N 59°54' E 010°42'0 0.0
2014-Sep-12 23:33N 59°54' E 010°42'0 0.0
2014-Sep-12 22:33N 59°54' E 010°42'0 0.0
2014-Sep-12 21:33N 59°54' E 010°42'0 0.0
2014-Sep-12 20:33N 59°54' E 010°42'0 0.0
2014-Sep-12 19:33N 59°54' E 010°42'0 0.0
2014-Sep-12 18:33N 59°54' E 010°42'0 0.0
2014-Sep-12 17:33N 59°54' E 010°42'0 0.0
2014-Sep-12 16:33N 59°54' E 010°42'0 0.0
2014-Sep-12 15:33N 59°54' E 010°42'0 0.0
2014-Sep-12 14:33N 59°54' E 010°42'0 0.0
2014-Sep-12 13:33N 59°54' E 010°42'0 0.0
2014-Sep-12 12:33N 59°54' E 010°42'6 4.1
2014-Sep-12 11:12N 59°50' E 010°36'4 6.5
2014-Sep-12 10:32N 59°46' E 010°33'13 0.6
2014-Sep-11 13:30N 59°32' E 010°37'3 3.3
2014-Sep-11 12:33N 59°29' E 010°36'7 6.6
2014-Sep-11 11:33N 59°23' E 010°37'7 7.1
2014-Sep-11 10:33N 59°16' E 010°42'4 3.7
2014-Sep-11 09:33N 59°13' E 010°47'0 0.1
2014-Sep-11 08:33N 59°13' E 010°47'0 0.0
2014-Sep-11 07:30N 59°13' E 010°47'0 0.0
2014-Sep-11 06:33N 59°13' E 010°47'0 0.0
2014-Sep-11 05:33N 59°13' E 010°47'0 0.0
2014-Sep-11 04:33N 59°13' E 010°47'0 0.0
2014-Sep-11 03:33N 59°13' E 010°47'0 0.0
2014-Sep-11 02:33N 59°13' E 010°47'0 0.0
2014-Sep-11 01:33N 59°13' E 010°47'0 0.0
2014-Sep-11 00:33N 59°13' E 010°47'0 0.0
2014-Sep-10 23:33N 59°13' E 010°47'0 0.0
2014-Sep-10 22:33N 59°13' E 010°47'0 0.0
2014-Sep-10 21:33N 59°13' E 010°47'0 0.0
2014-Sep-10 20:33N 59°13' E 010°47'0 0.0
2014-Sep-10 19:33N 59°13' E 010°47'0 0.0
2014-Sep-10 18:33N 59°13' E 010°47'0 0.0
2014-Sep-10 17:33N 59°13' E 010°47'0 0.0
2014-Sep-10 16:30N 59°13' E 010°47'2 2.1
2014-Sep-10 15:33N 59°11' E 010°45'5 5.2
2014-Sep-10 14:33N 59°13' E 010°35'2 2.2
2014-Sep-10 13:33N 59°13' E 010°40'4 4.1
2014-Sep-10 12:33N 59°17' E 010°38'5 4.6
2014-Sep-10 11:33N 59°22' E 010°35'6 5.0
2014-Sep-10 10:27N 59°27' E 010°31'1 0.1
2014-Sep-09 20:09N 59°26' E 010°29'0 0.0
2014-Sep-09 14:26N 59°26' E 010°29'5 5.1
2014-Sep-09 13:32N 59°30' E 010°33'25 6.2
2014-Sep-09 09:31N 59°54' E 010°42'0 0.1
2014-Sep-09 08:29N 59°54' E 010°42'0 0.0
2014-Sep-09 07:29N 59°54' E 010°42'0 0.0
2014-Sep-09 06:26N 59°54' E 010°42'0 0.0
2014-Sep-09 05:23N 59°54' E 010°42'0 0.0
2014-Sep-09 04:26N 59°54' E 010°42'0 0.0
2014-Sep-09 03:26N 59°54' E 010°42'0 0.0
2014-Sep-09 02:29N 59°54' E 010°42'0 0.0
2014-Sep-09 01:05N 59°54' E 010°42'0 0.0
2014-Sep-09 00:32N 59°54' E 010°42'0 0.0
2014-Sep-08 23:32N 59°54' E 010°42'0 0.0
2014-Sep-08 22:29N 59°54' E 010°42'0 0.0
2014-Sep-08 21:29N 59°54' E 010°42'0 0.0
2014-Sep-08 20:32N 59°54' E 010°42'0 0.0
2014-Sep-08 19:26N 59°54' E 010°42'0 0.0
2014-Sep-08 18:32N 59°54' E 010°42'0 0.0
2014-Sep-08 17:32N 59°54' E 010°42'0 0.0
2014-Sep-08 16:29N 59°54' E 010°42'0 0.0
2014-Sep-08 15:26N 59°54' E 010°42'0 0.0
2014-Sep-08 14:23N 59°54' E 010°42'0 0.0
2014-Sep-08 13:11N 59°54' E 010°42'0 0.0
2014-Sep-08 12:26N 59°54' E 010°42'0 0.0
2014-Sep-08 11:32N 59°54' E 010°42'0 0.0
2014-Sep-08 10:11N 59°54' E 010°42'0 0.0
2014-Sep-08 09:29N 59°54' E 010°42'0 0.0
2014-Sep-08 08:29N 59°54' E 010°42'0 0.0
2014-Sep-08 07:17N 59°54' E 010°42'0 0.0
2014-Sep-08 05:21N 59°54' E 010°42'0 0.0
2014-Sep-08 04:26N 59°54' E 010°42'0 0.0
2014-Sep-08 03:23N 59°54' E 010°42'0 0.0
2014-Sep-08 02:29N 59°54' E 010°42'0 0.0
2014-Sep-08 01:32N 59°54' E 010°42'0 0.0
2014-Sep-08 00:20N 59°54' E 010°42'0 0.0
2014-Sep-07 23:29N 59°54' E 010°42'0 0.0
2014-Sep-07 22:32N 59°54' E 010°42'0 0.0
2014-Sep-07 21:05N 59°54' E 010°42'0 0.0
2014-Sep-07 20:23N 59°54' E 010°42'0 0.0
2014-Sep-07 19:29N 59°54' E 010°42'0 0.0
2014-Sep-07 18:26N 59°54' E 010°42'0 0.0
2014-Sep-07 16:26N 59°54' E 010°42'0 0.0
2014-Sep-07 15:32N 59°54' E 010°42'0 0.0
2014-Sep-07 14:20N 59°54' E 010°42'0 0.0
2014-Sep-07 13:29N 59°54' E 010°42'  

Dump ship's entire track history